Oskaloosa, IA (52577)

4:25 AM CDT on August 24, 2016 (GMT -0500)
Downtown Oskaloosa | | Change Station
Active Advisory: Flash Flood Watch

Elev 846 ft 41.29 °N, 92.65 °W | Updated 13 minutes ago

Light Rain
Light Rain
73.5 °F
Feels Like 71 °F
N
4.0
Wind Variable Wind from NNE
Gusts 9.0 mph

Today
High -- | Low -- °F
--% Chance of Precip.
Yesterday
High -- | Low -- °F
Precip. -- in
Pressure 29.89 in
Visibility 10.0 miles
Clouds Scattered Clouds 1800 ft
Mostly Cloudy 2300 ft
Mostly Cloudy 4300 ft
Heat Index 71 °F
Dew Point 71 °F
Humidity 93%
Rainfall 0.15 in
Snow Depth Not available.
6:29 AM 7:55 PM
Waning Gibbous, 59% visible
METAR KOOA 240915Z AUTO 22006KT 10SM -RA SCT018 BKN023 BKN043 22/21 A2989 RMK AO2 T02220214
Pressure 29.89 in
Visibility 10.0 miles
Clouds Scattered Clouds 1800 ft
Mostly Cloudy 2300 ft
Mostly Cloudy 4300 ft
Heat Index 71 °F
Dew Point 71 °F
Humidity 93%
Rainfall 0.15 in
Snow Depth Not available.
6:29 AM 7:55 PM
Waning Gibbous, 59% visible
METAR KOOA 240915Z AUTO 22006KT 10SM -RA SCT018 BKN023 BKN043 22/21 A2989 RMK AO2 T02220214

10-Day Weather Forecast

Almanac

Astronomy

Aug. 24, 2016 Rise Set
Actual Time
Civil Twilight
Nautical Twilight
Astronomical Twilight
Moon
Length of Visible Light
Length of Day
Tomorrow will be .
, % of the Moon is Illuminated

Today's Extremes

State Highs State Lows

Community

WunderPhotos

Upload Photos

1,934,560 photos uploaded!

WunderBlog® & News

Nearby

Air Quality

  Air Quality AQ Index Pollutant
Not available.

Snow Depth

Station Depth Elevation

Earthquake Activity

City Distance Mag. Time & Date
Minimum magnitude displayed is 2.5.

Coastal Water Temperatures

Place Temperature

Stations

Nearby Weather Stations

Station Location Temp. Windchill Dew Point Humidity Wind Precip. Elev Updated Type
                   

Watches & Warnings

Flash Flood Watch
Issued: 3:51 AM CDT Aug. 24, 2016 – National Weather Service

... Flash Flood Watch in effect from this evening through Thursday
morning...

The National Weather Service in Des Moines has issued a

* Flash Flood Watch for portions of south central Iowa...
southeast Iowa and southwest Iowa... including the following
areas... in south central Iowa... Appanoose... Clarke... Decatur...
   Lucas... Mahaska... Marion... Monroe... Ringgold... Union and
Wayne. In southeast Iowa... Davis and Wapello. In southwest
Iowa... Adams and Taylor.

* From this evening through Thursday morning

* the combination of recent heavy rainfall and the expectation of
additional storms with heavy rainfall in excess of 2 inches with
locally higher amounts possible may lead to flash flooding.

* Water may cover roads and rapid rises on local streams are
possible tonight.

Precautionary/preparedness actions...

A Flash Flood Watch means that conditions may develop that lead
to flash flooding. Flash flooding is a very dangerous situation.

You should monitor later forecasts and be prepared to take action
should flash flood warnings be issued.


Fab